sensor_id;sensor_type;location;lat;lon;timestamp;P1;durP1;ratioP1;P2;durP2;ratioP2
51824;SDS011;37879;52.986;6.282;2023-08-30T00:00:43;11.55;;;8.63;;
51824;SDS011;37879;52.986;6.282;2023-08-30T00:03:10;11.88;;;9.18;;
51824;SDS011;37879;52.986;6.282;2023-08-30T00:05:40;12.60;;;9.48;;
51824;SDS011;37879;52.986;6.282;2023-08-30T00:08:07;12.88;;;9.43;;
51824;SDS011;37879;52.986;6.282;2023-08-30T00:10:36;12.18;;;10.13;;
51824;SDS011;37879;52.986;6.282;2023-08-30T00:13:03;13.38;;;11.23;;
51824;SDS011;37879;52.986;6.282;2023-08-30T00:15:29;13.82;;;10.23;;
51824;SDS011;37879;52.986;6.282;2023-08-30T00:17:54;13.50;;;10.63;;
51824;SDS011;37879;52.986;6.282;2023-08-30T00:20:20;13.90;;;9.85;;
51824;SDS011;37879;52.986;6.282;2023-08-30T00:22:46;13.23;;;10.65;;
51824;SDS011;37879;52.986;6.282;2023-08-30T00:25:13;12.35;;;9.95;;
51824;SDS011;37879;52.986;6.282;2023-08-30T00:27:39;15.52;;;10.23;;
51824;SDS011;37879;52.986;6.282;2023-08-30T00:30:05;13.15;;;10.38;;
51824;SDS011;37879;52.986;6.282;2023-08-30T00:32:33;13.20;;;9.48;;
51824;SDS011;37879;52.986;6.282;2023-08-30T00:34:59;13.95;;;10.82;;
51824;SDS011;37879;52.986;6.282;2023-08-30T00:37:24;11.88;;;10.27;;
51824;SDS011;37879;52.986;6.282;2023-08-30T00:39:50;14.05;;;11.80;;
51824;SDS011;37879;52.986;6.282;2023-08-30T00:42:15;13.85;;;10.93;;
51824;SDS011;37879;52.986;6.282;2023-08-30T00:44:41;16.67;;;12.60;;
51824;SDS011;37879;52.986;6.282;2023-08-30T00:47:07;14.50;;;11.40;;
51824;SDS011;37879;52.986;6.282;2023-08-30T00:49:33;15.85;;;11.20;;
51824;SDS011;37879;52.986;6.282;2023-08-30T00:52:00;13.80;;;11.38;;
51824;SDS011;37879;52.986;6.282;2023-08-30T00:54:28;14.80;;;11.95;;
51824;SDS011;37879;52.986;6.282;2023-08-30T00:56:54;14.98;;;11.77;;
51824;SDS011;37879;52.986;6.282;2023-08-30T00:59:20;12.85;;;10.90;;
51824;SDS011;37879;52.986;6.282;2023-08-30T01:01:47;13.52;;;9.93;;
51824;SDS011;37879;52.986;6.282;2023-08-30T01:04:13;15.20;;;10.52;;
51824;SDS011;37879;52.986;6.282;2023-08-30T01:06:39;13.43;;;11.20;;
51824;SDS011;37879;52.986;6.282;2023-08-30T01:09:06;16.48;;;11.23;;
51824;SDS011;37879;52.986;6.282;2023-08-30T01:11:34;14.25;;;11.32;;
51824;SDS011;37879;52.986;6.282;2023-08-30T01:14:14;14.40;;;10.52;;
51824;SDS011;37879;52.986;6.282;2023-08-30T01:16:43;14.55;;;11.30;;
51824;SDS011;37879;52.986;6.282;2023-08-30T01:19:25;13.30;;;10.43;;
51824;SDS011;37879;52.986;6.282;2023-08-30T01:24:37;15.52;;;10.40;;
51824;SDS011;37879;52.986;6.282;2023-08-30T01:27:20;14.00;;;10.40;;
51824;SDS011;37879;52.986;6.282;2023-08-30T01:29:47;12.95;;;10.57;;
51824;SDS011;37879;52.986;6.282;2023-08-30T01:32:15;13.10;;;10.90;;
51824;SDS011;37879;52.986;6.282;2023-08-30T01:34:41;13.38;;;10.63;;
51824;SDS011;37879;52.986;6.282;2023-08-30T01:37:08;15.40;;;11.05;;
51824;SDS011;37879;52.986;6.282;2023-08-30T01:39:37;12.20;;;9.98;;
51824;SDS011;37879;52.986;6.282;2023-08-30T01:42:05;13.38;;;11.38;;
51824;SDS011;37879;52.986;6.282;2023-08-30T01:44:33;13.18;;;10.70;;
51824;SDS011;37879;52.986;6.282;2023-08-30T01:46:59;16.98;;;11.45;;
51824;SDS011;37879;52.986;6.282;2023-08-30T01:49:26;12.27;;;10.50;;
51824;SDS011;37879;52.986;6.282;2023-08-30T01:51:56;13.00;;;10.45;;
51824;SDS011;37879;52.986;6.282;2023-08-30T01:54:22;12.23;;;10.73;;
51824;SDS011;37879;52.986;6.282;2023-08-30T01:56:50;12.80;;;10.45;;
51824;SDS011;37879;52.986;6.282;2023-08-30T01:59:16;13.10;;;9.93;;
51824;SDS011;37879;52.986;6.282;2023-08-30T02:01:41;12.82;;;10.70;;
51824;SDS011;37879;52.986;6.282;2023-08-30T02:04:07;12.70;;;9.88;;
51824;SDS011;37879;52.986;6.282;2023-08-30T02:06:39;12.75;;;9.98;;
51824;SDS011;37879;52.986;6.282;2023-08-30T02:09:17;12.75;;;9.52;;
51824;SDS011;37879;52.986;6.282;2023-08-30T02:11:49;12.05;;;9.60;;
51824;SDS011;37879;52.986;6.282;2023-08-30T02:14:17;11.32;;;9.82;;
51824;SDS011;37879;52.986;6.282;2023-08-30T02:16:45;12.50;;;9.65;;
51824;SDS011;37879;52.986;6.282;2023-08-30T02:19:12;11.82;;;9.10;;
51824;SDS011;37879;52.986;6.282;2023-08-30T02:21:42;11.27;;;9.07;;
51824;SDS011;37879;52.986;6.282;2023-08-30T02:24:08;12.60;;;9.57;;
51824;SDS011;37879;52.986;6.282;2023-08-30T02:26:34;11.65;;;8.88;;
51824;SDS011;37879;52.986;6.282;2023-08-30T02:29:00;11.95;;;9.05;;
51824;SDS011;37879;52.986;6.282;2023-08-30T02:31:25;11.48;;;8.68;;
51824;SDS011;37879;52.986;6.282;2023-08-30T02:33:51;11.13;;;9.45;;
51824;SDS011;37879;52.986;6.282;2023-08-30T02:36:16;12.05;;;8.40;;
51824;SDS011;37879;52.986;6.282;2023-08-30T02:38:42;9.77;;;8.15;;
51824;SDS011;37879;52.986;6.282;2023-08-30T02:41:08;12.32;;;8.65;;
51824;SDS011;37879;52.986;6.282;2023-08-30T02:43:35;11.45;;;9.02;;
51824;SDS011;37879;52.986;6.282;2023-08-30T02:46:01;12.73;;;9.65;;
51824;SDS011;37879;52.986;6.282;2023-08-30T02:48:28;12.48;;;8.55;;
51824;SDS011;37879;52.986;6.282;2023-08-30T02:50:54;11.55;;;8.73;;
51824;SDS011;37879;52.986;6.282;2023-08-30T02:53:20;11.05;;;9.00;;
51824;SDS011;37879;52.986;6.282;2023-08-30T02:55:46;10.88;;;8.27;;
51824;SDS011;37879;52.986;6.282;2023-08-30T02:58:13;9.75;;;8.73;;
51824;SDS011;37879;52.986;6.282;2023-08-30T03:00:38;12.98;;;8.88;;
51824;SDS011;37879;52.986;6.282;2023-08-30T03:03:04;10.75;;;8.13;;
51824;SDS011;37879;52.986;6.282;2023-08-30T03:05:30;12.77;;;9.07;;
51824;SDS011;37879;52.986;6.282;2023-08-30T03:07:55;12.50;;;9.43;;
51824;SDS011;37879;52.986;6.282;2023-08-30T03:10:21;14.48;;;9.38;;
51824;SDS011;37879;52.986;6.282;2023-08-30T03:12:48;14.18;;;10.18;;
51824;SDS011;37879;52.986;6.282;2023-08-30T03:15:13;12.93;;;9.27;;
51824;SDS011;37879;52.986;6.282;2023-08-30T03:17:39;12.77;;;9.80;;
51824;SDS011;37879;52.986;6.282;2023-08-30T03:20:05;11.80;;;9.00;;
51824;SDS011;37879;52.986;6.282;2023-08-30T03:22:31;14.02;;;10.10;;
51824;SDS011;37879;52.986;6.282;2023-08-30T03:24:57;13.80;;;9.48;;
51824;SDS011;37879;52.986;6.282;2023-08-30T03:27:23;12.75;;;9.13;;
51824;SDS011;37879;52.986;6.282;2023-08-30T03:29:49;12.57;;;9.95;;
51824;SDS011;37879;52.986;6.282;2023-08-30T03:32:15;13.10;;;9.43;;
51824;SDS011;37879;52.986;6.282;2023-08-30T03:34:45;15.45;;;9.52;;
51824;SDS011;37879;52.986;6.282;2023-08-30T03:37:13;12.30;;;8.52;;
51824;SDS011;37879;52.986;6.282;2023-08-30T03:39:39;13.73;;;9.10;;
51824;SDS011;37879;52.986;6.282;2023-08-30T03:42:05;12.65;;;9.25;;
51824;SDS011;37879;52.986;6.282;2023-08-30T03:44:31;12.18;;;9.70;;
51824;SDS011;37879;52.986;6.282;2023-08-30T03:46:56;12.25;;;10.43;;
51824;SDS011;37879;52.986;6.282;2023-08-30T03:49:22;11.30;;;9.02;;
51824;SDS011;37879;52.986;6.282;2023-08-30T03:51:48;11.38;;;9.32;;
51824;SDS011;37879;52.986;6.282;2023-08-30T03:54:13;10.48;;;9.13;;
51824;SDS011;37879;52.986;6.282;2023-08-30T03:56:44;12.52;;;9.57;;
51824;SDS011;37879;52.986;6.282;2023-08-30T03:59:11;10.48;;;7.47;;
51824;SDS011;37879;52.986;6.282;2023-08-30T04:01:37;11.98;;;9.15;;
51824;SDS011;37879;52.986;6.282;2023-08-30T04:04:02;13.20;;;9.13;;
51824;SDS011;37879;52.986;6.282;2023-08-30T04:06:30;11.95;;;7.93;;
51824;SDS011;37879;52.986;6.282;2023-08-30T04:08:55;11.25;;;8.45;;
51824;SDS011;37879;52.986;6.282;2023-08-30T04:11:21;10.68;;;8.30;;
51824;SDS011;37879;52.986;6.282;2023-08-30T04:13:48;11.25;;;9.32;;
51824;SDS011;37879;52.986;6.282;2023-08-30T04:16:13;12.27;;;9.18;;
51824;SDS011;37879;52.986;6.282;2023-08-30T04:18:39;12.05;;;9.57;;
51824;SDS011;37879;52.986;6.282;2023-08-30T04:21:05;10.55;;;8.52;;
51824;SDS011;37879;52.986;6.282;2023-08-30T04:23:32;9.50;;;7.55;;
51824;SDS011;37879;52.986;6.282;2023-08-30T04:25:58;12.23;;;9.80;;
51824;SDS011;37879;52.986;6.282;2023-08-30T04:28:24;11.85;;;9.18;;
51824;SDS011;37879;52.986;6.282;2023-08-30T04:30:53;11.95;;;8.55;;
51824;SDS011;37879;52.986;6.282;2023-08-30T04:33:19;11.45;;;8.23;;
51824;SDS011;37879;52.986;6.282;2023-08-30T04:35:49;10.73;;;8.20;;
51824;SDS011;37879;52.986;6.282;2023-08-30T04:38:19;9.82;;;8.52;;
51824;SDS011;37879;52.986;6.282;2023-08-30T04:40:45;12.02;;;8.00;;
51824;SDS011;37879;52.986;6.282;2023-08-30T04:43:11;11.48;;;7.97;;
51824;SDS011;37879;52.986;6.282;2023-08-30T04:45:37;10.70;;;7.57;;
51824;SDS011;37879;52.986;6.282;2023-08-30T04:48:03;12.18;;;8.32;;
51824;SDS011;37879;52.986;6.282;2023-08-30T04:50:29;11.20;;;8.13;;
51824;SDS011;37879;52.986;6.282;2023-08-30T04:52:55;11.60;;;8.70;;
51824;SDS011;37879;52.986;6.282;2023-08-30T04:55:24;12.43;;;7.53;;
51824;SDS011;37879;52.986;6.282;2023-08-30T04:57:50;10.45;;;7.82;;
51824;SDS011;37879;52.986;6.282;2023-08-30T05:00:16;10.68;;;7.60;;
51824;SDS011;37879;52.986;6.282;2023-08-30T05:02:44;10.20;;;7.45;;
51824;SDS011;37879;52.986;6.282;2023-08-30T05:05:11;10.95;;;8.30;;
51824;SDS011;37879;52.986;6.282;2023-08-30T05:07:37;10.80;;;8.65;;
51824;SDS011;37879;52.986;6.282;2023-08-30T05:10:03;9.00;;;7.38;;
51824;SDS011;37879;52.986;6.282;2023-08-30T05:12:30;12.00;;;8.90;;
51824;SDS011;37879;52.986;6.282;2023-08-30T05:14:55;12.18;;;9.10;;
51824;SDS011;37879;52.986;6.282;2023-08-30T05:17:21;12.20;;;8.45;;
51824;SDS011;37879;52.986;6.282;2023-08-30T05:19:47;12.68;;;9.18;;
51824;SDS011;37879;52.986;6.282;2023-08-30T05:22:12;10.82;;;8.48;;
51824;SDS011;37879;52.986;6.282;2023-08-30T05:24:38;13.20;;;9.05;;
51824;SDS011;37879;52.986;6.282;2023-08-30T05:27:04;11.38;;;8.38;;
51824;SDS011;37879;52.986;6.282;2023-08-30T05:29:30;10.73;;;8.10;;
51824;SDS011;37879;52.986;6.282;2023-08-30T05:31:55;10.50;;;8.05;;
51824;SDS011;37879;52.986;6.282;2023-08-30T05:34:21;13.13;;;8.63;;
51824;SDS011;37879;52.986;6.282;2023-08-30T05:36:48;10.77;;;8.07;;
51824;SDS011;37879;52.986;6.282;2023-08-30T05:39:14;12.95;;;8.40;;
51824;SDS011;37879;52.986;6.282;2023-08-30T05:41:40;10.57;;;8.45;;
51824;SDS011;37879;52.986;6.282;2023-08-30T05:44:05;13.82;;;9.80;;
51824;SDS011;37879;52.986;6.282;2023-08-30T05:46:32;12.48;;;8.25;;
51824;SDS011;37879;52.986;6.282;2023-08-30T05:48:58;11.27;;;8.88;;
51824;SDS011;37879;52.986;6.282;2023-08-30T05:51:25;12.88;;;9.15;;
51824;SDS011;37879;52.986;6.282;2023-08-30T05:53:51;12.60;;;9.50;;
51824;SDS011;37879;52.986;6.282;2023-08-30T05:56:16;11.90;;;9.07;;
51824;SDS011;37879;52.986;6.282;2023-08-30T05:58:42;13.10;;;8.50;;
51824;SDS011;37879;52.986;6.282;2023-08-30T06:01:08;11.75;;;8.95;;
51824;SDS011;37879;52.986;6.282;2023-08-30T06:03:34;14.32;;;8.45;;
51824;SDS011;37879;52.986;6.282;2023-08-30T06:06:00;16.17;;;9.25;;
51824;SDS011;37879;52.986;6.282;2023-08-30T06:08:26;12.23;;;8.90;;
51824;SDS011;37879;52.986;6.282;2023-08-30T06:10:52;12.52;;;9.93;;
51824;SDS011;37879;52.986;6.282;2023-08-30T06:13:17;12.07;;;9.60;;
51824;SDS011;37879;52.986;6.282;2023-08-30T06:15:43;12.75;;;9.50;;
51824;SDS011;37879;52.986;6.282;2023-08-30T06:18:10;12.60;;;9.00;;
51824;SDS011;37879;52.986;6.282;2023-08-30T06:20:39;11.88;;;8.45;;
51824;SDS011;37879;52.986;6.282;2023-08-30T06:23:05;13.07;;;8.75;;
51824;SDS011;37879;52.986;6.282;2023-08-30T06:25:31;13.05;;;9.27;;
51824;SDS011;37879;52.986;6.282;2023-08-30T06:27:57;12.07;;;8.88;;
51824;SDS011;37879;52.986;6.282;2023-08-30T06:30:30;12.43;;;9.13;;
51824;SDS011;37879;52.986;6.282;2023-08-30T06:32:56;11.15;;;8.50;;
51824;SDS011;37879;52.986;6.282;2023-08-30T06:35:22;16.33;;;9.55;;
51824;SDS011;37879;52.986;6.282;2023-08-30T06:37:48;11.75;;;9.43;;
51824;SDS011;37879;52.986;6.282;2023-08-30T06:40:13;12.88;;;8.35;;
51824;SDS011;37879;52.986;6.282;2023-08-30T06:42:39;12.45;;;8.15;;
51824;SDS011;37879;52.986;6.282;2023-08-30T06:45:05;14.80;;;9.05;;
51824;SDS011;37879;52.986;6.282;2023-08-30T06:47:31;13.32;;;9.38;;
51824;SDS011;37879;52.986;6.282;2023-08-30T06:49:57;11.82;;;9.10;;
51824;SDS011;37879;52.986;6.282;2023-08-30T06:52:24;14.65;;;8.52;;
51824;SDS011;37879;52.986;6.282;2023-08-30T06:54:49;14.55;;;9.10;;
51824;SDS011;37879;52.986;6.282;2023-08-30T06:57:15;16.23;;;9.23;;
51824;SDS011;37879;52.986;6.282;2023-08-30T06:59:41;15.43;;;8.70;;
51824;SDS011;37879;52.986;6.282;2023-08-30T07:02:07;12.93;;;9.23;;
51824;SDS011;37879;52.986;6.282;2023-08-30T07:04:33;11.10;;;8.45;;
51824;SDS011;37879;52.986;6.282;2023-08-30T07:06:58;10.93;;;7.82;;
51824;SDS011;37879;52.986;6.282;2023-08-30T07:09:24;12.63;;;8.52;;
51824;SDS011;37879;52.986;6.282;2023-08-30T07:11:57;12.52;;;7.43;;
51824;SDS011;37879;52.986;6.282;2023-08-30T07:14:23;11.35;;;8.98;;
51824;SDS011;37879;52.986;6.282;2023-08-30T07:16:49;11.93;;;8.48;;
51824;SDS011;37879;52.986;6.282;2023-08-30T07:19:15;11.80;;;7.85;;
51824;SDS011;37879;52.986;6.282;2023-08-30T07:21:41;10.25;;;7.57;;
51824;SDS011;37879;52.986;6.282;2023-08-30T07:24:08;10.75;;;7.80;;
51824;SDS011;37879;52.986;6.282;2023-08-30T07:26:34;10.38;;;7.85;;
51824;SDS011;37879;52.986;6.282;2023-08-30T07:29:00;9.88;;;7.00;;
51824;SDS011;37879;52.986;6.282;2023-08-30T07:31:26;10.45;;;7.95;;
51824;SDS011;37879;52.986;6.282;2023-08-30T07:33:51;10.88;;;8.10;;
51824;SDS011;37879;52.986;6.282;2023-08-30T07:36:17;11.20;;;8.18;;
51824;SDS011;37879;52.986;6.282;2023-08-30T07:38:42;10.95;;;7.88;;
51824;SDS011;37879;52.986;6.282;2023-08-30T07:41:09;11.57;;;7.78;;
51824;SDS011;37879;52.986;6.282;2023-08-30T07:43:34;11.75;;;8.02;;
51824;SDS011;37879;52.986;6.282;2023-08-30T07:46:00;12.45;;;8.02;;
51824;SDS011;37879;52.986;6.282;2023-08-30T07:48:26;12.82;;;8.80;;
51824;SDS011;37879;52.986;6.282;2023-08-30T07:50:51;10.43;;;7.90;;
51824;SDS011;37879;52.986;6.282;2023-08-30T07:53:17;12.07;;;8.40;;
51824;SDS011;37879;52.986;6.282;2023-08-30T07:55:44;10.88;;;7.53;;
51824;SDS011;37879;52.986;6.282;2023-08-30T07:58:13;11.00;;;7.95;;
51824;SDS011;37879;52.986;6.282;2023-08-30T08:00:39;11.88;;;8.15;;
51824;SDS011;37879;52.986;6.282;2023-08-30T08:03:05;12.80;;;8.07;;
51824;SDS011;37879;52.986;6.282;2023-08-30T08:05:31;11.60;;;8.30;;
51824;SDS011;37879;52.986;6.282;2023-08-30T08:07:59;13.82;;;8.98;;
51824;SDS011;37879;52.986;6.282;2023-08-30T08:10:26;12.68;;;8.68;;
51824;SDS011;37879;52.986;6.282;2023-08-30T08:12:52;11.02;;;7.28;;
51824;SDS011;37879;52.986;6.282;2023-08-30T08:15:17;10.48;;;7.65;;
51824;SDS011;37879;52.986;6.282;2023-08-30T08:17:43;9.65;;;7.13;;
51824;SDS011;37879;52.986;6.282;2023-08-30T08:20:09;9.60;;;6.93;;
51824;SDS011;37879;52.986;6.282;2023-08-30T08:22:35;11.70;;;7.10;;
51824;SDS011;37879;52.986;6.282;2023-08-30T08:25:00;10.18;;;6.82;;
51824;SDS011;37879;52.986;6.282;2023-08-30T08:27:26;8.25;;;6.80;;
51824;SDS011;37879;52.986;6.282;2023-08-30T08:29:52;8.68;;;6.88;;
51824;SDS011;37879;52.986;6.282;2023-08-30T08:32:18;9.57;;;7.70;;
51824;SDS011;37879;52.986;6.282;2023-08-30T08:34:43;13.07;;;8.00;;
51824;SDS011;37879;52.986;6.282;2023-08-30T08:37:09;11.88;;;7.85;;
51824;SDS011;37879;52.986;6.282;2023-08-30T08:39:34;11.23;;;8.35;;
51824;SDS011;37879;52.986;6.282;2023-08-30T08:42:01;14.55;;;8.23;;
51824;SDS011;37879;52.986;6.282;2023-08-30T08:44:32;9.57;;;7.50;;
51824;SDS011;37879;52.986;6.282;2023-08-30T08:46:58;10.95;;;6.95;;
51824;SDS011;37879;52.986;6.282;2023-08-30T08:49:25;12.15;;;8.25;;
51824;SDS011;37879;52.986;6.282;2023-08-30T08:51:53;10.93;;;6.70;;
51824;SDS011;37879;52.986;6.282;2023-08-30T08:54:19;8.90;;;6.97;;
51824;SDS011;37879;52.986;6.282;2023-08-30T08:56:45;9.05;;;7.30;;
51824;SDS011;37879;52.986;6.282;2023-08-30T08:59:11;11.75;;;7.50;;
51824;SDS011;37879;52.986;6.282;2023-08-30T09:01:38;10.98;;;7.72;;
51824;SDS011;37879;52.986;6.282;2023-08-30T09:04:08;11.48;;;8.23;;
51824;SDS011;37879;52.986;6.282;2023-08-30T09:06:34;11.43;;;8.00;;
51824;SDS011;37879;52.986;6.282;2023-08-30T09:09:04;11.65;;;6.78;;
51824;SDS011;37879;52.986;6.282;2023-08-30T09:11:30;9.23;;;7.05;;
51824;SDS011;37879;52.986;6.282;2023-08-30T09:13:56;9.35;;;7.13;;
51824;SDS011;37879;52.986;6.282;2023-08-30T09:16:22;9.25;;;6.72;;
51824;SDS011;37879;52.986;6.282;2023-08-30T09:19:01;9.80;;;7.32;;
51824;SDS011;37879;52.986;6.282;2023-08-30T09:21:28;11.98;;;7.28;;
51824;SDS011;37879;52.986;6.282;2023-08-30T09:24:02;9.18;;;6.63;;
51824;SDS011;37879;52.986;6.282;2023-08-30T09:26:29;8.38;;;6.28;;
51824;SDS011;37879;52.986;6.282;2023-08-30T09:29:04;8.75;;;6.60;;
51824;SDS011;37879;52.986;6.282;2023-08-30T09:31:34;7.82;;;6.15;;
51824;SDS011;37879;52.986;6.282;2023-08-30T09:34:02;7.65;;;5.75;;
51824;SDS011;37879;52.986;6.282;2023-08-30T09:36:41;9.30;;;6.82;;
51824;SDS011;37879;52.986;6.282;2023-08-30T09:39:08;9.20;;;6.47;;
51824;SDS011;37879;52.986;6.282;2023-08-30T09:41:37;8.75;;;6.57;;
51824;SDS011;37879;52.986;6.282;2023-08-30T09:44:09;11.38;;;6.75;;
51824;SDS011;37879;52.986;6.282;2023-08-30T09:46:45;9.98;;;6.20;;
51824;SDS011;37879;52.986;6.282;2023-08-30T09:49:14;7.45;;;5.18;;
51824;SDS011;37879;52.986;6.282;2023-08-30T09:51:40;7.78;;;5.20;;
51824;SDS011;37879;52.986;6.282;2023-08-30T09:54:10;7.63;;;4.60;;
51824;SDS011;37879;52.986;6.282;2023-08-30T09:56:53;8.02;;;4.88;;
51824;SDS011;37879;52.986;6.282;2023-08-30T09:59:21;7.28;;;4.65;;
51824;SDS011;37879;52.986;6.282;2023-08-30T10:01:47;5.95;;;3.85;;
51824;SDS011;37879;52.986;6.282;2023-08-30T10:04:13;5.47;;;4.20;;
51824;SDS011;37879;52.986;6.282;2023-08-30T10:06:40;6.75;;;5.10;;
51824;SDS011;37879;52.986;6.282;2023-08-30T10:09:07;6.78;;;5.07;;
51824;SDS011;37879;52.986;6.282;2023-08-30T10:11:34;9.80;;;5.28;;
51824;SDS011;37879;52.986;6.282;2023-08-30T10:14:02;6.07;;;4.75;;
51824;SDS011;37879;52.986;6.282;2023-08-30T10:16:30;6.65;;;5.00;;
51824;SDS011;37879;52.986;6.282;2023-08-30T10:19:17;7.07;;;4.90;;
51824;SDS011;37879;52.986;6.282;2023-08-30T10:21:58;6.18;;;4.90;;
51824;SDS011;37879;52.986;6.282;2023-08-30T10:24:40;5.97;;;4.03;;
51824;SDS011;37879;52.986;6.282;2023-08-30T10:27:13;5.88;;;4.05;;
51824;SDS011;37879;52.986;6.282;2023-08-30T10:29:40;5.72;;;4.07;;
51824;SDS011;37879;52.986;6.282;2023-08-30T10:32:07;6.35;;;4.68;;
51824;SDS011;37879;52.986;6.282;2023-08-30T10:34:33;5.25;;;3.65;;
51824;SDS011;37879;52.986;6.282;2023-08-30T10:37:01;5.13;;;3.75;;
51824;SDS011;37879;52.986;6.282;2023-08-30T10:42:01;5.03;;;3.50;;
51824;SDS011;37879;52.986;6.282;2023-08-30T10:44:52;8.20;;;4.55;;
51824;SDS011;37879;52.986;6.282;2023-08-30T10:47:23;7.15;;;4.13;;
51824;SDS011;37879;52.986;6.282;2023-08-30T10:49:57;6.03;;;4.10;;
51824;SDS011;37879;52.986;6.282;2023-08-30T10:52:29;5.35;;;4.20;;
51824;SDS011;37879;52.986;6.282;2023-08-30T10:55:08;9.48;;;4.88;;
51824;SDS011;37879;52.986;6.282;2023-08-30T10:57:44;6.03;;;4.85;;
51824;SDS011;37879;52.986;6.282;2023-08-30T11:02:43;5.40;;;3.67;;
51824;SDS011;37879;52.986;6.282;2023-08-30T11:05:11;8.20;;;4.60;;
51824;SDS011;37879;52.986;6.282;2023-08-30T11:07:37;5.60;;;3.78;;
51824;SDS011;37879;52.986;6.282;2023-08-30T11:10:06;4.95;;;4.00;;
51824;SDS011;37879;52.986;6.282;2023-08-30T11:12:33;5.78;;;4.00;;
51824;SDS011;37879;52.986;6.282;2023-08-30T11:15:00;5.38;;;3.92;;
51824;SDS011;37879;52.986;6.282;2023-08-30T11:17:27;6.10;;;4.50;;
51824;SDS011;37879;52.986;6.282;2023-08-30T11:20:15;6.40;;;4.78;;
51824;SDS011;37879;52.986;6.282;2023-08-30T11:22:42;5.78;;;3.78;;
51824;SDS011;37879;52.986;6.282;2023-08-30T11:25:09;5.53;;;4.25;;
51824;SDS011;37879;52.986;6.282;2023-08-30T11:27:37;6.97;;;4.95;;
51824;SDS011;37879;52.986;6.282;2023-08-30T11:30:03;6.72;;;3.85;;
51824;SDS011;37879;52.986;6.282;2023-08-30T11:32:37;4.93;;;4.07;;
51824;SDS011;37879;52.986;6.282;2023-08-30T11:35:09;7.05;;;4.93;;
51824;SDS011;37879;52.986;6.282;2023-08-30T11:37:35;6.60;;;4.43;;
51824;SDS011;37879;52.986;6.282;2023-08-30T11:40:01;8.35;;;6.15;;
51824;SDS011;37879;52.986;6.282;2023-08-30T11:42:29;6.90;;;5.57;;
51824;SDS011;37879;52.986;6.282;2023-08-30T11:44:57;8.05;;;5.80;;
51824;SDS011;37879;52.986;6.282;2023-08-30T11:47:23;8.70;;;5.20;;
51824;SDS011;37879;52.986;6.282;2023-08-30T11:49:50;7.25;;;5.65;;
51824;SDS011;37879;52.986;6.282;2023-08-30T11:52:18;7.03;;;5.68;;
51824;SDS011;37879;52.986;6.282;2023-08-30T11:54:46;7.28;;;5.53;;
51824;SDS011;37879;52.986;6.282;2023-08-30T11:57:12;7.70;;;5.82;;
51824;SDS011;37879;52.986;6.282;2023-08-30T11:59:38;7.20;;;5.75;;
51824;SDS011;37879;52.986;6.282;2023-08-30T12:02:04;9.63;;;6.18;;
51824;SDS011;37879;52.986;6.282;2023-08-30T12:04:32;7.25;;;5.88;;
51824;SDS011;37879;52.986;6.282;2023-08-30T12:06:58;9.15;;;6.15;;
51824;SDS011;37879;52.986;6.282;2023-08-30T12:09:33;9.43;;;7.07;;
51824;SDS011;37879;52.986;6.282;2023-08-30T12:12:06;8.40;;;5.90;;
51824;SDS011;37879;52.986;6.282;2023-08-30T12:14:38;10.32;;;6.28;;
51824;SDS011;37879;52.986;6.282;2023-08-30T12:17:04;7.85;;;6.03;;
51824;SDS011;37879;52.986;6.282;2023-08-30T12:19:31;8.88;;;5.95;;
51824;SDS011;37879;52.986;6.282;2023-08-30T12:22:02;7.20;;;5.57;;
51824;SDS011;37879;52.986;6.282;2023-08-30T12:24:51;7.65;;;6.43;;
51824;SDS011;37879;52.986;6.282;2023-08-30T12:27:16;7.47;;;5.85;;
51824;SDS011;37879;52.986;6.282;2023-08-30T12:29:41;7.35;;;6.35;;
51824;SDS011;37879;52.986;6.282;2023-08-30T12:32:07;8.68;;;6.47;;
51824;SDS011;37879;52.986;6.282;2023-08-30T12:34:33;9.27;;;6.50;;
51824;SDS011;37879;52.986;6.282;2023-08-30T12:36:59;11.27;;;7.07;;
51824;SDS011;37879;52.986;6.282;2023-08-30T12:39:27;8.57;;;6.28;;
51824;SDS011;37879;52.986;6.282;2023-08-30T12:41:52;8.30;;;6.45;;
51824;SDS011;37879;52.986;6.282;2023-08-30T12:44:18;6.90;;;4.95;;
51824;SDS011;37879;52.986;6.282;2023-08-30T12:46:44;8.88;;;6.32;;
51824;SDS011;37879;52.986;6.282;2023-08-30T12:49:09;8.23;;;6.95;;
51824;SDS011;37879;52.986;6.282;2023-08-30T12:51:35;6.50;;;5.32;;
51824;SDS011;37879;52.986;6.282;2023-08-30T12:54:00;7.85;;;6.13;;
51824;SDS011;37879;52.986;6.282;2023-08-30T12:56:26;8.60;;;6.47;;
51824;SDS011;37879;52.986;6.282;2023-08-30T12:58:52;7.88;;;6.43;;
51824;SDS011;37879;52.986;6.282;2023-08-30T13:01:17;9.30;;;6.07;;
51824;SDS011;37879;52.986;6.282;2023-08-30T13:03:43;7.45;;;5.90;;
51824;SDS011;37879;52.986;6.282;2023-08-30T13:06:09;9.32;;;7.93;;
51824;SDS011;37879;52.986;6.282;2023-08-30T13:08:35;9.55;;;7.25;;
51824;SDS011;37879;52.986;6.282;2023-08-30T13:11:00;8.57;;;7.53;;
51824;SDS011;37879;52.986;6.282;2023-08-30T13:13:26;7.65;;;5.53;;
51824;SDS011;37879;52.986;6.282;2023-08-30T13:15:51;7.20;;;5.75;;
51824;SDS011;37879;52.986;6.282;2023-08-30T13:18:17;6.25;;;4.70;;
51824;SDS011;37879;52.986;6.282;2023-08-30T13:20:43;6.15;;;5.15;;
51824;SDS011;37879;52.986;6.282;2023-08-30T13:23:09;7.07;;;5.32;;
51824;SDS011;37879;52.986;6.282;2023-08-30T13:25:41;6.35;;;5.20;;
51824;SDS011;37879;52.986;6.282;2023-08-30T13:28:07;5.35;;;4.50;;
51824;SDS011;37879;52.986;6.282;2023-08-30T13:30:33;5.13;;;4.15;;
51824;SDS011;37879;52.986;6.282;2023-08-30T13:32:58;5.75;;;4.30;;
51824;SDS011;37879;52.986;6.282;2023-08-30T13:35:24;5.47;;;4.22;;
51824;SDS011;37879;52.986;6.282;2023-08-30T13:37:50;6.07;;;4.03;;
51824;SDS011;37879;52.986;6.282;2023-08-30T13:40:16;7.00;;;4.75;;
51824;SDS011;37879;52.986;6.282;2023-08-30T13:42:42;3.70;;;3.10;;
51824;SDS011;37879;52.986;6.282;2023-08-30T13:45:08;3.17;;;2.58;;
51824;SDS011;37879;52.986;6.282;2023-08-30T13:47:38;4.45;;;2.95;;
51824;SDS011;37879;52.986;6.282;2023-08-30T13:50:04;5.47;;;2.83;;
51824;SDS011;37879;52.986;6.282;2023-08-30T13:52:30;3.22;;;2.35;;
51824;SDS011;37879;52.986;6.282;2023-08-30T13:54:56;3.67;;;3.10;;
51824;SDS011;37879;52.986;6.282;2023-08-30T13:57:21;3.72;;;2.92;;
51824;SDS011;37879;52.986;6.282;2023-08-30T13:59:47;2.75;;;2.35;;
51824;SDS011;37879;52.986;6.282;2023-08-30T14:02:13;3.25;;;2.50;;
51824;SDS011;37879;52.986;6.282;2023-08-30T14:04:39;3.47;;;2.58;;
51824;SDS011;37879;52.986;6.282;2023-08-30T14:07:04;2.65;;;2.40;;
51824;SDS011;37879;52.986;6.282;2023-08-30T14:09:30;3.05;;;2.30;;
51824;SDS011;37879;52.986;6.282;2023-08-30T14:11:56;2.17;;;1.85;;
51824;SDS011;37879;52.986;6.282;2023-08-30T14:14:22;2.70;;;2.17;;
51824;SDS011;37879;52.986;6.282;2023-08-30T14:16:48;2.75;;;2.13;;
51824;SDS011;37879;52.986;6.282;2023-08-30T14:19:14;4.45;;;2.35;;
51824;SDS011;37879;52.986;6.282;2023-08-30T14:21:41;2.80;;;2.40;;
51824;SDS011;37879;52.986;6.282;2023-08-30T14:24:06;3.45;;;2.38;;
51824;SDS011;37879;52.986;6.282;2023-08-30T14:26:32;3.60;;;2.65;;
51824;SDS011;37879;52.986;6.282;2023-08-30T14:28:58;3.92;;;3.33;;
51824;SDS011;37879;52.986;6.282;2023-08-30T14:31:23;3.60;;;2.88;;
51824;SDS011;37879;52.986;6.282;2023-08-30T14:33:53;3.83;;;3.05;;
51824;SDS011;37879;52.986;6.282;2023-08-30T14:36:20;6.13;;;3.17;;
51824;SDS011;37879;52.986;6.282;2023-08-30T14:38:46;4.68;;;3.28;;
51824;SDS011;37879;52.986;6.282;2023-08-30T14:41:12;3.83;;;2.95;;
51824;SDS011;37879;52.986;6.282;2023-08-30T14:43:38;4.10;;;2.85;;
51824;SDS011;37879;52.986;6.282;2023-08-30T14:46:05;3.25;;;2.30;;